Time;durP1;ratioP1;P1;durP2;ratioP2;P2;SDS_P1;SDS_P2;PMS_P1;PMS_P2;Temp;Humidity;BMP_temperature;BMP_pressure;BME280_temperature;BME280_humidity;BME280_pressure;Samples;Min_cycle;Max_cycle;Signal;HPM_P1;HPM_P2
2021/11/12 00:03:37;;;;;;;30.45;14.48;;;;;;;;;;143734;614;46020;-57
2021/11/12 00:14:24;;;;;;;29.35;15.20;;;;;;;;;;143733;597;46021;-58
2021/11/12 00:16:53;;;;;;;22.27;13.32;;;;;;;;;;143731;569;46020;-56
2021/11/12 00:19:20;;;;;;;30.37;13.73;;;;;;;;;;143735;565;45021;-56
2021/11/12 00:21:47;;;;;;;17.92;10.48;;;;;;;;;;143737;564;45021;-57
2021/11/12 00:24:14;;;;;;;18.60;11.77;;;;;;;;;;143731;576;46022;-56
2021/11/12 00:26:41;;;;;;;24.65;12.23;;;;;;;;;;143731;567;46021;-58
2021/11/12 00:29:10;;;;;;;23.40;13.43;;;;;;;;;;143734;590;45021;-55
2021/11/12 00:32:01;;;;;;;21.08;13.23;;;;;;;;;;143736;608;45020;-56
2021/11/12 00:37:25;;;;;;;26.80;14.05;;;;;;;;;;143734;642;45917;-56
2021/11/12 00:39:59;;;;;;;;;;;;;;;;;;143740;982;45020;-56
2021/11/12 00:45:19;;;;;;;28.77;15.43;;;;;;;;;;143734;587;45912;-56
2021/11/12 00:47:52;;;;;;;24.12;14.73;;;;;;;;;;143732;564;46020;-56
2021/11/12 00:50:31;;;;;;;26.40;15.88;;;;;;;;;;143736;590;45021;-57
2021/11/12 00:55:46;;;;;;;30.55;17.30;;;;;;;;;;143732;596;46020;-56
2021/11/12 00:58:15;;;;;;;25.85;16.67;;;;;;;;;;143731;662;46021;-55
2021/11/12 01:00:46;;;;;;;25.65;16.02;;;;;;;;;;143737;572;45020;-56
2021/11/12 01:03:13;;;;;;;24.20;15.93;;;;;;;;;;143736;620;45020;-56
2021/11/12 01:05:41;;;;;;;26.65;17.45;;;;;;;;;;143733;585;46021;-55
2021/11/12 01:08:08;;;;;;;28.95;18.87;;;;;;;;;;143734;569;46020;-56
2021/11/12 01:10:35;;;;;;;24.75;17.62;;;;;;;;;;143735;578;45020;-55
2021/11/12 01:13:02;;;;;;;31.37;17.00;;;;;;;;;;143737;594;45021;-56
2021/11/12 01:15:29;;;;;;;32.20;18.87;;;;;;;;;;143732;575;46022;-55
2021/11/12 01:17:56;;;;;;;28.87;17.77;;;;;;;;;;143730;658;46030;-56
2021/11/12 01:20:23;;;;;;;29.15;16.17;;;;;;;;;;143735;564;45021;-56
2021/11/12 01:22:51;;;;;;;26.25;19.05;;;;;;;;;;143737;609;45020;-57
2021/11/12 01:25:21;;;;;;;24.17;15.95;;;;;;;;;;143732;630;46022;-56
2021/11/12 01:27:48;;;;;;;24.27;16.48;;;;;;;;;;143732;570;46021;-55
2021/11/12 01:30:17;;;;;;;22.15;16.27;;;;;;;;;;143736;614;45020;-57
2021/11/12 01:32:46;;;;;;;28.38;19.10;;;;;;;;;;143737;579;45020;-57
2021/11/12 01:35:13;;;;;;;21.40;15.82;;;;;;;;;;143731;580;46023;-55
2021/11/12 01:37:43;;;;;;;24.58;16.15;;;;;;;;;;143734;677;46020;-57
2021/11/12 01:40:19;;;;;;;21.92;13.88;;;;;;;;;;143735;579;45020;-55
2021/11/12 01:43:23;;;;;;;19.75;13.88;;;;;;;;;;143737;596;45021;-56
2021/11/12 01:46:21;;;;;;;18.70;13.77;;;;;;;;;;143733;596;46022;-56
2021/11/12 01:51:54;;;;;;;18.67;13.45;;;;;;;;;;143733;631;46020;-56
2021/11/12 01:54:40;;;;;;;19.85;14.30;;;;;;;;;;143735;582;45020;-56
2021/11/12 01:59:58;;;;;;;19.98;12.55;;;;;;;;;;143734;645;45916;-56
2021/11/12 02:02:26;;;;;;;24.85;14.30;;;;;;;;;;143733;613;46012;-57
2021/11/12 02:04:53;;;;;;;19.60;13.18;;;;;;;;;;143739;650;45021;-57
2021/11/12 02:07:20;;;;;;;20.15;13.30;;;;;;;;;;143732;571;46022;-55
2021/11/12 02:09:47;;;;;;;17.00;12.18;;;;;;;;;;143732;655;46020;-57
2021/11/12 02:12:22;;;;;;;19.98;12.43;;;;;;;;;;143735;592;45021;-56
2021/11/12 02:14:51;;;;;;;21.00;14.85;;;;;;;;;;143736;611;45020;-57
2021/11/12 02:17:23;;;;;;;22.60;14.38;;;;;;;;;;143735;654;46022;-56
2021/11/12 02:19:57;;;;;;;23.17;14.25;;;;;;;;;;143732;655;46021;-56
2021/11/12 02:22:27;;;;;;;18.10;13.13;;;;;;;;;;143735;665;45020;-57
2021/11/12 02:25:04;;;;;;;22.15;14.63;;;;;;;;;;143736;620;46012;-56
2021/11/12 02:27:49;;;;;;;23.38;14.60;;;;;;;;;;143733;606;46913;-56
2021/11/12 02:30:25;;;;;;;32.10;15.50;;;;;;;;;;143731;572;46020;-56
2021/11/12 02:33:19;;;;;;;33.35;17.35;;;;;;;;;;143736;648;45020;-55
2021/11/12 02:36:12;;;;;;;26.17;14.82;;;;;;;;;;143736;619;45021;-56
2021/11/12 02:38:48;;;;;;;36.47;17.00;;;;;;;;;;143731;609;46022;-56
2021/11/12 02:41:15;;;;;;;32.33;17.98;;;;;;;;;;143731;644;46021;-57
2021/11/12 02:43:45;;;;;;;32.50;17.60;;;;;;;;;;143734;626;45021;-57
2021/11/12 02:46:17;;;;;;;34.83;18.60;;;;;;;;;;143737;570;45020;-56
2021/11/12 02:48:44;;;;;;;31.10;17.35;;;;;;;;;;143732;577;46022;-56
2021/11/12 02:51:16;;;;;;;26.62;16.27;;;;;;;;;;143731;569;46020;-56
2021/11/12 02:53:44;;;;;;;25.25;15.95;;;;;;;;;;143736;577;45020;-56
2021/11/12 02:56:15;;;;;;;23.80;16.73;;;;;;;;;;143736;662;45021;-56
2021/11/12 02:58:42;;;;;;;36.30;19.37;;;;;;;;;;143734;598;46023;-55
2021/11/12 03:01:10;;;;;;;34.50;20.98;;;;;;;;;;143732;614;46020;-57
2021/11/12 03:03:38;;;;;;;31.83;18.55;;;;;;;;;;143735;635;45021;-55
2021/11/12 03:06:04;;;;;;;30.70;19.20;;;;;;;;;;143735;586;46021;-56
2021/11/12 03:08:31;;;;;;;33.80;20.23;;;;;;;;;;143732;637;46022;-57
2021/11/12 03:10:59;;;;;;;32.47;20.75;;;;;;;;;;143731;607;46021;-56
2021/11/12 03:13:27;;;;;;;25.83;17.80;;;;;;;;;;143735;611;45021;-56
2021/11/12 03:15:55;;;;;;;28.85;18.42;;;;;;;;;;143735;580;45020;-56
2021/11/12 03:18:23;;;;;;;36.50;16.62;;;;;;;;;;143731;639;46021;-56
2021/11/12 03:20:51;;;;;;;33.88;18.48;;;;;;;;;;143732;603;46020;-56
2021/11/12 03:23:22;;;;;;;31.50;16.70;;;;;;;;;;143736;595;45020;-57
2021/11/12 04:02:12;;;;;;;26.20;16.02;;;;;;;;;;143734;613;46020;-55
2021/11/12 04:18:56;;;;;;;27.10;16.27;;;;;;;;;;143735;594;45021;-56
2021/11/12 04:41:00;;;;;;;21.37;14.40;;;;;;;;;;143731;570;46020;-57
2021/11/12 05:11:12;;;;;;;28.75;20.42;;;;;;;;;;143737;573;45915;-56
2021/11/12 05:44:14;;;;;;;25.92;16.87;;;;;;;;;;143736;595;46020;-56
2021/11/12 05:46:46;;;;;;;36.20;19.73;;;;;;;;;;143734;633;45020;-55
2021/11/12 05:52:03;;;;;;;29.48;19.12;;;;;;;;;;143736;608;45020;-56
2021/11/12 05:57:16;;;;;;;32.17;19.02;;;;;;;;;;143734;619;46020;-58
2021/11/12 05:59:44;;;;;;;29.63;20.42;;;;;;;;;;143736;565;45020;-57
2021/11/12 06:02:12;;;;;;;43.38;33.03;;;;;;;;;;143733;601;46022;-56
2021/11/12 06:04:39;;;;;;;51.90;46.10;;;;;;;;;;143735;564;46020;-57
2021/11/12 06:07:06;;;;;;;36.75;28.70;;;;;;;;;;143735;624;45020;-58
2021/11/12 06:09:33;;;;;;;43.83;31.10;;;;;;;;;;143738;655;45021;-58
2021/11/12 06:12:00;;;;;;;43.47;34.40;;;;;;;;;;143735;661;46023;-57
2021/11/12 06:14:27;;;;;;;31.98;24.58;;;;;;;;;;143734;594;46020;-57
2021/11/12 06:16:55;;;;;;;39.13;27.02;;;;;;;;;;143738;611;45021;-58
2021/11/12 06:19:22;;;;;;;38.70;31.30;;;;;;;;;;143734;617;46021;-56
2021/11/12 06:21:50;;;;;;;44.17;36.65;;;;;;;;;;143734;597;46022;-57
2021/11/12 06:24:17;;;;;;;38.13;30.90;;;;;;;;;;143732;629;46020;-57
2021/11/12 06:26:44;;;;;;;42.45;32.03;;;;;;;;;;143740;582;45021;-57
2021/11/12 06:29:11;;;;;;;58.05;38.15;;;;;;;;;;143738;579;45020;-57
2021/11/12 06:31:39;;;;;;;46.63;33.53;;;;;;;;;;143734;570;46022;-56
2021/11/12 06:34:05;;;;;;;58.13;38.85;;;;;;;;;;143738;569;45919;-56
2021/11/12 06:36:32;;;;;;;57.30;35.75;;;;;;;;;;143734;566;46012;-58
2021/11/12 06:39:00;;;;;;;46.30;33.20;;;;;;;;;;143737;629;45021;-58
2021/11/12 06:49:56;;;;;;;35.65;25.45;;;;;;;;;;143737;585;46020;-56
2021/11/12 06:52:26;;;;;;;35.58;24.87;;;;;;;;;;143735;569;46022;-56
2021/11/12 06:54:54;;;;;;;34.85;21.27;;;;;;;;;;143736;581;46021;-57
2021/11/12 06:57:22;;;;;;;29.33;22.58;;;;;;;;;;143738;578;45020;-57
2021/11/12 06:59:49;;;;;;;35.63;22.20;;;;;;;;;;143739;606;45020;-56
2021/11/12 07:02:19;;;;;;;33.95;21.77;;;;;;;;;;143732;589;46022;-57
2021/11/12 07:04:46;;;;;;;29.33;19.83;;;;;;;;;;143733;687;46034;-56
2021/11/12 07:07:13;;;;;;;29.05;20.48;;;;;;;;;;143737;569;45020;-55
2021/11/12 07:09:40;;;;;;;24.65;17.75;;;;;;;;;;143738;603;46012;-57
2021/11/12 07:12:07;;;;;;;30.17;19.95;;;;;;;;;;143734;564;46023;-57
2021/11/12 07:14:35;;;;;;;28.92;19.25;;;;;;;;;;143735;577;46020;-57
2021/11/12 07:17:03;;;;;;;25.23;17.27;;;;;;;;;;143738;749;45021;-57
2021/11/12 07:19:30;;;;;;;28.00;16.20;;;;;;;;;;143739;565;46012;-56
2021/11/12 07:21:58;;;;;;;30.30;17.37;;;;;;;;;;143733;574;46022;-55
2021/11/12 07:24:25;;;;;;;23.35;16.20;;;;;;;;;;143731;577;48928;-56
2021/11/12 07:26:52;;;;;;;24.83;16.98;;;;;;;;;;143737;640;45025;-58
2021/11/12 07:29:20;;;;;;;29.77;16.98;;;;;;;;;;143739;612;45020;-58
2021/11/12 07:31:47;;;;;;;23.05;15.20;;;;;;;;;;143735;583;46022;-57
2021/11/12 07:34:14;;;;;;;22.62;15.10;;;;;;;;;;143736;565;46020;-57
2021/11/12 07:36:47;;;;;;;30.33;15.10;;;;;;;;;;143735;608;46012;-58
2021/11/12 07:47:35;;;;;;;21.80;14.48;;;;;;;;;;143737;579;45911;-58
2021/11/12 07:50:06;;;;;;;25.62;15.50;;;;;;;;;;143736;606;46020;-57
2021/11/12 07:52:35;;;;;;;18.25;13.48;;;;;;;;;;143735;564;46022;-57
2021/11/12 07:55:05;;;;;;;20.92;14.10;;;;;;;;;;143735;589;46021;-58
2021/11/12 07:57:32;;;;;;;25.15;13.43;;;;;;;;;;143739;633;45020;-56
2021/11/12 07:59:59;;;;;;;22.50;12.60;;;;;;;;;;143739;631;45020;-57
2021/11/12 08:02:26;;;;;;;24.60;13.02;;;;;;;;;;143734;569;46038;-56
2021/11/12 08:05:00;;;;;;;20.77;13.15;;;;;;;;;;143735;700;46023;-57
2021/11/12 08:07:30;;;;;;;33.95;18.65;;;;;;;;;;143739;595;45020;-56
2021/11/12 08:10:00;;;;;;;33.97;21.95;;;;;;;;;;143738;567;46021;-56
2021/11/12 08:12:38;;;;;;;31.35;20.55;;;;;;;;;;143734;571;46022;-56
2021/11/12 08:20:53;;;;;;;24.02;13.73;;;;;;;;;;143740;578;46012;-58
2021/11/12 08:23:30;;;;;;;26.05;18.75;;;;;;;;;;143737;644;46020;-58
2021/11/12 08:26:12;;;;;;;20.62;11.65;;;;;;;;;;143733;565;46021;-58
2021/11/12 08:29:01;;;;;;;20.25;12.18;;;;;;;;;;143738;579;45020;-57
2021/11/12 08:31:33;;;;;;;17.45;13.45;;;;;;;;;;143737;761;46021;-57
2021/11/12 08:36:59;;;;;;;21.65;11.18;;;;;;;;;;143736;853;45918;-56
2021/11/12 08:39:38;;;;;;;24.92;12.80;;;;;;;;;;143735;578;45913;-57
2021/11/12 08:44:58;;;;;;;29.87;12.13;;;;;;;;;;143735;624;46020;-56
2021/11/12 08:50:02;;;;;;;31.52;11.95;;;;;;;;;;143736;569;46020;-57
2021/11/12 08:52:29;;;;;;;19.50;10.77;;;;;;;;;;143738;629;45020;-56
2021/11/12 08:54:57;;;;;;;18.33;10.57;;;;;;;;;;143735;642;46023;-55
2021/11/12 08:57:24;;;;;;;17.48;10.50;;;;;;;;;;143734;610;46020;-56
2021/11/12 08:59:52;;;;;;;17.67;9.82;;;;;;;;;;143739;585;45020;-55
2021/11/12 09:02:25;;;;;;;19.95;10.15;;;;;;;;;;143739;566;45021;-56
2021/11/12 09:04:53;;;;;;;22.40;10.23;;;;;;;;;;143734;596;46022;-57
2021/11/12 09:07:21;;;;;;;13.20;8.70;;;;;;;;;;143734;564;46020;-56
2021/11/12 09:09:56;;;;;;;22.62;10.57;;;;;;;;;;143738;586;45021;-57
2021/11/12 09:12:24;;;;;;;;;;;;;;;;;;143742;982;45020;-56
2021/11/12 09:14:52;;;;;;;17.45;9.02;;;;;;;;;;143746;578;46020;-56
2021/11/12 09:17:22;;;;;;;22.60;10.10;;;;;;;;;;143735;639;46021;-57
2021/11/12 09:19:54;;;;;;;15.98;9.48;;;;;;;;;;143739;628;45020;-57
2021/11/12 09:22:23;;;;;;;17.23;9.40;;;;;;;;;;143739;617;45020;-57
2021/11/12 09:24:51;;;;;;;18.87;10.13;;;;;;;;;;143729;586;50012;-57
2021/11/12 09:27:20;;;;;;;18.15;10.82;;;;;;;;;;143734;629;46020;-58
2021/11/12 09:29:47;;;;;;;20.02;10.20;;;;;;;;;;143737;586;45913;-56
2021/11/12 09:32:15;;;;;;;15.38;10.35;;;;;;;;;;143737;621;46010;-56
2021/11/12 09:34:43;;;;;;;16.85;10.60;;;;;;;;;;143734;588;46022;-57
2021/11/12 09:37:12;;;;;;;16.10;10.45;;;;;;;;;;143733;596;46020;-56
2021/11/12 09:39:40;;;;;;;20.40;12.23;;;;;;;;;;143738;569;45021;-57
2021/11/12 09:42:09;;;;;;;17.73;10.93;;;;;;;;;;143737;589;46010;-56
2021/11/12 09:44:37;;;;;;;18.35;10.57;;;;;;;;;;143733;895;47020;-56
2021/11/12 09:47:04;;;;;;;14.55;10.27;;;;;;;;;;143733;599;46021;-57
2021/11/12 09:49:31;;;;;;;14.20;10.30;;;;;;;;;;143735;591;45020;-57
2021/11/12 09:51:59;;;;;;;22.05;11.50;;;;;;;;;;143739;699;45020;-56
2021/11/12 09:54:27;;;;;;;19.12;10.90;;;;;;;;;;143736;602;46023;-57
2021/11/12 09:56:53;;;;;;;17.58;10.60;;;;;;;;;;143733;569;46020;-56
2021/11/12 09:59:21;;;;;;;16.23;10.32;;;;;;;;;;143736;622;45020;-56
2021/11/12 10:01:48;;;;;;;16.77;10.63;;;;;;;;;;143735;674;46010;-56
2021/11/12 10:04:15;;;;;;;13.70;9.35;;;;;;;;;;143734;618;46023;-57
2021/11/12 10:06:44;;;;;;;14.35;9.75;;;;;;;;;;143734;602;46020;-56
2021/11/12 10:09:17;;;;;;;14.75;9.18;;;;;;;;;;143737;629;45021;-56
2021/11/12 10:11:53;;;;;;;16.52;9.07;;;;;;;;;;143738;574;46010;-57
2021/11/12 10:15:03;;;;;;;16.15;9.10;;;;;;;;;;143735;592;46020;-56
2021/11/12 10:17:32;;;;;;;16.90;9.48;;;;;;;;;;143734;580;46021;-57
2021/11/12 10:20:00;;;;;;;16.98;8.70;;;;;;;;;;143736;581;45022;-57
2021/11/12 10:22:32;;;;;;;14.60;7.70;;;;;;;;;;143737;610;45018;-56
2021/11/12 10:25:06;;;;;;;15.98;10.93;;;;;;;;;;143734;712;46028;-57
2021/11/12 10:27:34;;;;;;;37.55;27.35;;;;;;;;;;143734;610;46020;-58
2021/11/12 10:30:15;;;;;;;25.98;11.43;;;;;;;;;;143737;584;45020;-56
2021/11/12 10:32:44;;;;;;;19.73;13.27;;;;;;;;;;143737;627;46021;-56
2021/11/12 10:35:23;;;;;;;23.25;15.32;;;;;;;;;;143736;617;46022;-56
2021/11/12 10:37:51;;;;;;;23.30;12.15;;;;;;;;;;143731;585;47010;-55
2021/11/12 10:40:21;;;;;;;27.10;18.02;;;;;;;;;;143738;567;45021;-57
2021/11/12 10:42:54;;;;;;;19.48;11.10;;;;;;;;;;143737;569;46010;-57
2021/11/12 10:45:29;;;;;;;16.98;11.25;;;;;;;;;;143734;653;46022;-56
2021/11/12 10:48:02;;;;;;;19.12;8.85;;;;;;;;;;143733;583;46020;-56
2021/11/12 10:50:31;;;;;;;17.00;11.95;;;;;;;;;;143737;753;45020;-56
2021/11/12 10:53:14;;;;;;;22.02;14.82;;;;;;;;;;143738;585;45021;-56
2021/11/12 10:56:03;;;;;;;14.32;10.35;;;;;;;;;;143735;564;46020;-57
2021/11/12 10:58:31;;;;;;;16.80;8.98;;;;;;;;;;143732;575;46020;-56
2021/11/12 11:00:58;;;;;;;15.15;10.32;;;;;;;;;;143736;566;45021;-57
2021/11/12 11:03:26;;;;;;;14.13;8.95;;;;;;;;;;143736;588;45020;-57
2021/11/12 11:05:56;;;;;;;15.95;7.93;;;;;;;;;;143733;565;46022;-57
2021/11/12 11:08:29;;;;;;;15.43;9.02;;;;;;;;;;143730;662;46916;-57
2021/11/12 11:11:02;;;;;;;14.85;9.38;;;;;;;;;;143734;564;46020;-57
2021/11/12 11:13:32;;;;;;;20.77;10.43;;;;;;;;;;143737;645;45020;-58
2021/11/12 11:16:02;;;;;;;14.52;9.10;;;;;;;;;;143734;581;46022;-58
2021/11/12 11:18:57;;;;;;;17.23;10.00;;;;;;;;;;143731;569;46020;-58
2021/11/12 11:21:25;;;;;;;18.17;8.60;;;;;;;;;;143736;609;45020;-56
2021/11/12 11:24:07;;;;;;;16.50;8.35;;;;;;;;;;143736;592;45021;-57
2021/11/12 11:26:48;;;;;;;17.00;8.68;;;;;;;;;;143734;574;46022;-58
2021/11/12 11:29:20;;;;;;;14.43;9.77;;;;;;;;;;143732;640;46020;-57
2021/11/12 11:31:47;;;;;;;16.05;8.82;;;;;;;;;;143736;578;45021;-57
2021/11/12 11:34:14;;;;;;;13.95;8.65;;;;;;;;;;143735;585;46010;-58
2021/11/12 11:36:45;;;;;;;15.95;9.82;;;;;;;;;;143732;575;46022;-57
2021/11/12 11:39:15;;;;;;;12.68;8.85;;;;;;;;;;143732;579;46021;-57
2021/11/12 11:41:46;;;;;;;11.82;8.18;;;;;;;;;;143735;565;45020;-57
2021/11/12 11:44:20;;;;;;;15.60;8.15;;;;;;;;;;143736;589;45021;-57
2021/11/12 11:46:51;;;;;;;15.40;9.18;;;;;;;;;;143733;616;46021;-57
2021/11/12 11:49:21;;;;;;;15.07;9.30;;;;;;;;;;143734;610;46020;-57
2021/11/12 11:51:53;;;;;;;10.73;8.23;;;;;;;;;;143735;570;45021;-57
2021/11/12 11:54:22;;;;;;;13.07;8.02;;;;;;;;;;143736;590;45021;-75
2021/11/12 11:56:59;;;;;;;15.93;8.00;;;;;;;;;;143731;618;46022;-58
2021/11/12 11:59:29;;;;;;;12.52;7.37;;;;;;;;;;143731;596;46021;-57
2021/11/12 12:02:01;;;;;;;14.65;7.85;;;;;;;;;;143735;564;45021;-56
2021/11/12 12:04:37;;;;;;;12.90;8.18;;;;;;;;;;143736;576;45020;-57
2021/11/12 12:07:25;;;;;;;11.95;8.43;;;;;;;;;;143732;626;46022;-58
2021/11/12 12:10:15;;;;;;;13.82;7.20;;;;;;;;;;143731;624;46020;-56
2021/11/12 12:12:46;;;;;;;15.55;8.40;;;;;;;;;;143737;608;45020;-56
2021/11/12 12:15:35;;;;;;;18.48;8.30;;;;;;;;;;143738;640;45021;-57
2021/11/12 12:18:28;;;;;;;11.77;7.45;;;;;;;;;;143732;575;46025;-57
2021/11/12 12:30:58;;;;;;;13.98;7.07;;;;;;;;;;143734;624;46014;-57
2021/11/12 12:43:31;;;;;;;25.23;11.85;;;;;;;;;;143732;589;46020;-56
2021/11/12 13:23:32;;;;;;;21.45;11.75;;;;;;;;;;143736;596;45021;-57
2021/11/12 13:26:03;;;;;;;30.95;18.35;;;;;;;;;;143736;637;45020;-57
2021/11/12 13:28:43;;;;;;;20.20;13.35;;;;;;;;;;143733;569;46022;-57
2021/11/12 13:31:13;;;;;;;19.30;12.00;;;;;;;;;;143732;635;46020;-57
2021/11/12 13:33:54;;;;;;;15.30;8.95;;;;;;;;;;143727;585;46020;-57
2021/11/12 13:36:40;;;;;;;18.48;12.07;;;;;;;;;;143736;589;46020;-56
2021/11/12 13:39:18;;;;;;;15.35;8.88;;;;;;;;;;143734;564;46023;-56
2021/11/12 13:41:48;;;;;;;22.60;14.07;;;;;;;;;;143731;572;46020;-55
2021/11/12 13:44:21;;;;;;;19.10;10.10;;;;;;;;;;143735;586;45021;-56
2021/11/12 13:46:54;;;;;;;17.17;10.55;;;;;;;;;;143737;586;45021;-55
2021/11/12 13:49:48;;;;;;;19.90;12.85;;;;;;;;;;143732;590;46022;-55
2021/11/12 13:52:22;;;;;;;18.83;12.13;;;;;;;;;;143733;565;46021;-56
2021/11/12 13:55:07;;;;;;;18.60;10.35;;;;;;;;;;143736;571;45021;-55
2021/11/12 13:57:34;;;;;;;;;;;;;;;;;;143740;980;46020;-55
2021/11/12 14:00:07;;;;;;;18.52;10.20;;;;;;;;;;143744;639;46022;-56
2021/11/12 14:03:06;;;;;;;12.77;8.88;;;;;;;;;;143732;613;46020;-56
2021/11/12 14:05:34;;;;;;;20.20;9.15;;;;;;;;;;143736;629;45020;-55
2021/11/12 14:08:07;;;;;;;18.00;10.15;;;;;;;;;;143736;564;45021;-57
2021/11/12 14:10:53;;;;;;;13.13;9.57;;;;;;;;;;143733;581;46020;-55
2021/11/12 14:13:22;;;;;;;14.40;8.90;;;;;;;;;;143731;580;46020;-57
2021/11/12 14:16:22;;;;;;;12.82;8.18;;;;;;;;;;143736;581;45912;-56
2021/11/12 14:22:12;;;;;;;19.27;7.87;;;;;;;;;;143733;565;46021;-56
2021/11/12 14:24:51;;;;;;;15.88;8.60;;;;;;;;;;143733;586;46020;-56
2021/11/12 14:27:38;;;;;;;11.77;8.40;;;;;;;;;;143735;591;45020;-56
2021/11/12 14:36:15;;;;;;;14.48;8.48;;;;;;;;;;143733;576;45915;-55
2021/11/12 14:38:55;;;;;;;12.00;8.35;;;;;;;;;;143732;572;45887;-57
2021/11/12 14:47:09;;;;;;;14.75;7.57;;;;;;;;;;143733;577;46020;-55
2021/11/12 14:49:43;;;;;;;12.43;7.93;;;;;;;;;;143733;634;45909;-57
2021/11/12 14:52:14;;;;;;;11.95;7.75;;;;;;;;;;143737;631;46021;-56
2021/11/12 14:54:55;;;;;;;13.05;7.87;;;;;;;;;;143735;619;46020;-55
2021/11/12 14:57:30;;;;;;;10.73;7.72;;;;;;;;;;143734;599;46020;-56
2021/11/12 15:00:00;;;;;;;;;;;;;;;;;;143741;980;45021;-56
2021/11/12 15:02:28;;;;;;;12.43;7.70;;;;;;;;;;143746;584;45020;-55
2021/11/12 15:04:56;;;;;;;10.80;6.35;;;;;;;;;;143732;644;46022;-56
2021/11/12 15:07:26;;;;;;;13.10;6.87;;;;;;;;;;143732;626;46021;-56
2021/11/12 15:09:54;;;;;;;12.15;7.78;;;;;;;;;;143734;573;45020;-57
2021/11/12 15:12:22;;;;;;;14.23;7.35;;;;;;;;;;143734;593;45020;-55
2021/11/12 15:14:55;;;;;;;12.63;8.25;;;;;;;;;;143734;616;46023;-55
2021/11/12 15:17:23;;;;;;;9.90;6.93;;;;;;;;;;143734;569;46020;-55
2021/11/12 15:19:50;;;;;;;10.40;7.03;;;;;;;;;;143732;564;46012;-55
2021/11/12 15:25:19;;;;;;;11.05;7.10;;;;;;;;;;143736;570;45024;-57
2021/11/12 15:30:38;;;;;;;11.93;7.80;;;;;;;;;;143732;624;47021;-55
2021/11/12 15:33:07;;;;;;;12.23;7.12;;;;;;;;;;143736;579;46020;-56
2021/11/12 15:35:34;;;;;;;12.85;7.90;;;;;;;;;;143733;647;46021;-55
2021/11/12 15:41:04;;;;;;;11.40;7.55;;;;;;;;;;143734;579;45910;-56
2021/11/12 15:46:22;;;;;;;12.10;8.10;;;;;;;;;;143736;564;45025;-57
2021/11/12 15:48:49;;;;;;;24.85;7.28;;;;;;;;;;143730;570;46916;-56
2021/11/12 15:54:40;;;;;;;17.48;7.72;;;;;;;;;;143736;575;46020;-55
2021/11/12 16:08:44;;;;;;;25.10;10.38;;;;;;;;;;143736;577;46014;-56
2021/11/12 16:11:20;;;;;;;18.70;9.20;;;;;;;;;;143729;606;48012;-57
2021/11/12 16:13:58;;;;;;;11.55;6.68;;;;;;;;;;143734;583;45912;-56
2021/11/12 16:25:09;;;;;;;9.32;6.57;;;;;;;;;;143731;572;47020;-57
2021/11/12 16:27:39;;;;;;;10.90;7.25;;;;;;;;;;143733;586;46013;-56
2021/11/12 16:30:08;;;;;;;13.62;7.05;;;;;;;;;;143732;571;46023;-55
2021/11/12 16:32:45;;;;;;;13.75;8.35;;;;;;;;;;143732;576;46020;-55
2021/11/12 16:35:17;;;;;;;13.77;8.35;;;;;;;;;;143736;592;45021;-55
2021/11/12 16:37:46;;;;;;;11.45;7.68;;;;;;;;;;143736;570;46021;-56
2021/11/12 16:48:58;;;;;;;14.77;7.55;;;;;;;;;;143735;570;46022;-56
2021/11/12 16:54:36;;;;;;;13.47;7.67;;;;;;;;;;143733;644;46012;-55
2021/11/12 16:57:18;;;;;;;11.27;7.62;;;;;;;;;;143735;627;45021;-55
2021/11/12 17:02:51;;;;;;;11.88;7.62;;;;;;;;;;143734;626;45022;-57
2021/11/12 17:05:33;;;;;;;22.08;8.48;;;;;;;;;;143733;596;46021;-56
2021/11/12 17:08:13;;;;;;;12.35;8.05;;;;;;;;;;143734;601;45912;-57
2021/11/12 17:10:58;;;;;;;17.95;8.15;;;;;;;;;;143735;596;45020;-56
2021/11/12 17:13:42;;;;;;;11.65;8.15;;;;;;;;;;143736;616;46022;-55
2021/11/12 17:22:47;;;;;;;12.10;7.87;;;;;;;;;;143738;612;46021;-56
2021/11/12 17:46:56;;;;;;;11.40;7.50;;;;;;;;;;143733;655;46020;-57
2021/11/12 18:03:21;;;;;;;18.02;12.07;;;;;;;;;;143736;583;46022;-57
2021/11/12 21:46:24;;;;;;;12.82;8.07;;;;;;;;;;143736;605;46014;-58
2021/11/12 21:49:01;;;;;;;13.30;9.25;;;;;;;;;;143738;595;45021;-57
2021/11/12 21:51:31;;;;;;;12.32;8.50;;;;;;;;;;143734;630;46020;-56
2021/11/12 21:54:01;;;;;;;13.15;9.00;;;;;;;;;;143736;582;46020;-56
2021/11/12 21:56:28;;;;;;;9.77;8.10;;;;;;;;;;143737;570;46018;-58
2021/11/12 21:58:55;;;;;;;14.27;8.80;;;;;;;;;;143738;564;45021;-56
2021/11/12 22:01:24;;;;;;;14.60;9.45;;;;;;;;;;143734;568;46022;-56
2021/11/12 22:03:51;;;;;;;14.70;10.45;;;;;;;;;;143736;590;46021;-57
2021/11/12 22:06:18;;;;;;;25.67;14.30;;;;;;;;;;143738;588;45029;-56
2021/11/12 22:08:45;;;;;;;12.32;9.98;;;;;;;;;;143738;593;45020;-56
2021/11/12 22:11:13;;;;;;;15.00;9.90;;;;;;;;;;143733;646;46022;-57
2021/11/12 22:13:41;;;;;;;15.15;10.10;;;;;;;;;;143734;583;46020;-56
2021/11/12 22:16:15;;;;;;;18.55;11.32;;;;;;;;;;143738;611;45020;-56
2021/11/12 22:18:42;;;;;;;13.07;9.27;;;;;;;;;;143739;593;45021;-57
2021/11/12 22:21:09;;;;;;;13.55;8.32;;;;;;;;;;143736;578;46020;-55
2021/11/12 22:23:37;;;;;;;14.25;9.20;;;;;;;;;;143733;589;46020;-57
2021/11/12 22:26:04;;;;;;;14.27;9.98;;;;;;;;;;143738;566;45021;-56
2021/11/12 22:28:32;;;;;;;14.07;9.50;;;;;;;;;;143737;626;45020;-55
2021/11/12 22:31:00;;;;;;;11.07;8.73;;;;;;;;;;143734;624;46022;-56
2021/11/12 22:33:28;;;;;;;13.70;9.65;;;;;;;;;;143738;619;45918;-56
2021/11/12 22:35:55;;;;;;;13.10;8.40;;;;;;;;;;143735;565;46912;-57
2021/11/12 22:38:22;;;;;;;15.00;10.10;;;;;;;;;;143738;602;45020;-57
2021/11/12 22:40:50;;;;;;;11.93;8.75;;;;;;;;;;143735;664;46021;-57
2021/11/12 22:43:18;;;;;;;11.57;8.45;;;;;;;;;;143733;668;46020;-57
2021/11/12 22:45:45;;;;;;;13.30;9.10;;;;;;;;;;143735;573;46012;-57
2021/11/12 22:48:13;;;;;;;13.35;9.45;;;;;;;;;;143738;658;46012;-55
2021/11/12 22:50:40;;;;;;;14.27;7.80;;;;;;;;;;143734;569;46023;-55
2021/11/12 22:53:08;;;;;;;13.55;9.85;;;;;;;;;;143734;645;46020;-55
2021/11/12 22:55:35;;;;;;;14.27;9.63;;;;;;;;;;143739;613;45021;-57
2021/11/12 22:58:02;;;;;;;13.48;10.20;;;;;;;;;;143739;574;45020;-57
2021/11/12 23:01:10;;;;;;;11.63;9.07;;;;;;;;;;143734;664;46022;-56
2021/11/12 23:03:37;;;;;;;16.70;10.65;;;;;;;;;;143733;596;46021;-56
2021/11/12 23:06:05;;;;;;;15.48;10.40;;;;;;;;;;143739;634;45020;-56
2021/11/12 23:08:32;;;;;;;13.77;10.63;;;;;;;;;;143738;664;45020;-56
2021/11/12 23:10:59;;;;;;;15.45;10.35;;;;;;;;;;143732;640;46022;-56
2021/11/12 23:13:27;;;;;;;13.00;10.20;;;;;;;;;;143733;586;46020;-57
2021/11/12 23:15:56;;;;;;;16.90;11.57;;;;;;;;;;143737;650;46020;-57
2021/11/12 23:18:24;;;;;;;16.10;10.80;;;;;;;;;;143739;579;45021;-56
2021/11/12 23:20:52;;;;;;;12.37;9.45;;;;;;;;;;143733;636;46022;-55
2021/11/12 23:23:20;;;;;;;13.75;10.15;;;;;;;;;;143733;642;46020;-56
2021/11/12 23:25:47;;;;;;;10.93;8.65;;;;;;;;;;143737;617;45021;-57
2021/11/12 23:28:15;;;;;;;12.88;9.57;;;;;;;;;;143738;583;45020;-57
2021/11/12 23:30:42;;;;;;;13.68;9.18;;;;;;;;;;143736;573;46022;-56
2021/11/12 23:33:10;;;;;;;21.17;14.63;;;;;;;;;;143731;577;46916;-56
2021/11/12 23:35:37;;;;;;;18.60;12.57;;;;;;;;;;143735;569;45020;-57
2021/11/12 23:38:04;;;;;;;17.27;12.48;;;;;;;;;;143737;619;45020;-56
2021/11/12 23:40:31;;;;;;;22.05;13.07;;;;;;;;;;143732;657;46022;-57
2021/11/12 23:42:58;;;;;;;17.70;11.93;;;;;;;;;;143731;601;46020;-56
2021/11/12 23:45:25;;;;;;;16.83;11.35;;;;;;;;;;143736;577;45020;-57
2021/11/12 23:47:52;;;;;;;28.65;16.65;;;;;;;;;;143737;596;45022;-56
2021/11/12 23:50:20;;;;;;;17.08;11.68;;;;;;;;;;143732;644;46023;-56
2021/11/12 23:52:47;;;;;;;13.52;10.30;;;;;;;;;;143732;618;46020;-56
2021/11/12 23:55:16;;;;;;;16.60;11.82;;;;;;;;;;143735;623;45021;-56
2021/11/12 23:57:44;;;;;;;22.98;12.80;;;;;;;;;;143737;629;45020;-56
